createdAt,value
2018-01-29T00:00:04.812Z,2.60
2018-01-29T00:01:04.806Z,3.00
2018-01-29T00:02:04.800Z,2.60
2018-01-29T00:03:04.794Z,2.50
2018-01-29T00:04:04.791Z,2.50
2018-01-29T00:05:04.785Z,2.40
2018-01-29T00:06:04.779Z,3.10
2018-01-29T00:07:04.773Z,2.80
2018-01-29T00:08:04.769Z,2.60
2018-01-29T00:09:04.763Z,2.20
2018-01-29T00:10:04.757Z,2.50
2018-01-29T00:11:04.752Z,2.50
2018-01-29T00:12:04.746Z,2.70
2018-01-29T00:13:04.741Z,2.70
2018-01-29T00:14:04.735Z,2.40
2018-01-29T00:15:04.731Z,2.20
2018-01-29T00:16:04.725Z,2.80
2018-01-29T00:17:04.718Z,2.10
2018-01-29T00:18:04.713Z,2.20
2018-01-29T00:19:04.707Z,2.10
2018-01-29T00:20:04.708Z,2.30
2018-01-29T00:21:04.697Z,2.10
2018-01-29T00:22:04.690Z,2.60
2018-01-29T00:23:04.686Z,2.60
2018-01-29T00:24:04.680Z,2.40
2018-01-29T00:25:04.674Z,2.80
2018-01-29T00:26:04.668Z,2.60
2018-01-29T00:27:04.662Z,3.00
2018-01-29T00:28:04.658Z,2.30
2018-01-29T00:29:04.655Z,2.50
2018-01-29T00:30:04.646Z,2.50
2018-01-29T00:31:04.641Z,2.80
2018-01-29T00:32:04.636Z,3.00
2018-01-29T00:33:04.631Z,3.50
2018-01-29T00:34:04.624Z,2.90
2018-01-29T00:35:04.620Z,2.50
2018-01-29T00:36:04.614Z,3.00
2018-01-29T00:37:04.609Z,2.80
2018-01-29T00:38:04.603Z,2.70
2018-01-29T00:39:04.598Z,2.60
2018-01-29T00:40:04.593Z,2.90
2018-01-29T00:41:04.587Z,2.90
2018-01-29T00:42:04.581Z,2.70
2018-01-29T00:43:04.575Z,2.50
2018-01-29T00:44:04.569Z,3.30
2018-01-29T00:45:04.564Z,2.70
2018-01-29T00:46:04.558Z,2.80
2018-01-29T00:47:04.553Z,2.70
2018-01-29T00:48:04.548Z,2.70
2018-01-29T00:49:04.542Z,3.00
2018-01-29T00:50:04.535Z,2.50
2018-01-29T00:51:04.530Z,2.50
2018-01-29T00:52:04.525Z,1.90
2018-01-29T00:53:04.519Z,2.40
2018-01-29T00:54:04.512Z,2.20
2018-01-29T00:55:04.510Z,2.40
2018-01-29T00:56:04.504Z,2.60
2018-01-29T00:57:04.498Z,2.20
2018-01-29T00:58:04.492Z,2.30
2018-01-29T00:59:04.486Z,2.20
2018-01-29T01:00:04.481Z,2.70
2018-01-29T01:01:04.475Z,2.30
2018-01-29T01:02:04.469Z,2.30
2018-01-29T01:03:04.465Z,2.40
2018-01-29T01:04:04.458Z,2.10
2018-01-29T01:05:04.454Z,2.40
2018-01-29T01:06:04.448Z,2.70
2018-01-29T01:07:04.441Z,2.20
2018-01-29T01:08:04.438Z,2.20
2018-01-29T01:09:04.431Z,2.00
2018-01-29T01:10:04.426Z,2.30
2018-01-29T01:11:04.421Z,2.20
2018-01-29T01:12:04.419Z,1.90
2018-01-29T01:13:04.409Z,2.00
2018-01-29T01:14:04.404Z,2.40
2018-01-29T01:15:04.398Z,1.80
2018-01-29T01:16:04.391Z,2.30
2018-01-29T01:17:04.387Z,2.60
2018-01-29T01:18:04.383Z,2.30
2018-01-29T01:19:04.378Z,2.40
2018-01-29T01:20:04.370Z,2.10
2018-01-29T01:21:04.368Z,1.90
2018-01-29T01:22:04.357Z,1.70
2018-01-29T01:23:04.354Z,1.90
2018-01-29T01:24:04.347Z,2.40
2018-01-29T01:25:04.344Z,1.90
2018-01-29T01:26:04.337Z,2.00
2018-01-29T01:27:04.330Z,2.10
2018-01-29T01:28:04.325Z,2.10
2018-01-29T01:29:04.320Z,1.70
2018-01-29T01:30:04.315Z,2.10
2018-01-29T01:31:04.309Z,2.10
2018-01-29T01:32:04.304Z,2.20
2018-01-29T01:33:04.299Z,1.90
2018-01-29T01:34:04.292Z,2.20
2018-01-29T01:35:04.287Z,2.10
2018-01-29T01:36:04.280Z,3.00
2018-01-29T01:37:04.277Z,2.90
2018-01-29T01:38:04.269Z,2.70
2018-01-29T01:39:04.263Z,2.90
2018-01-29T01:40:04.259Z,2.40
2018-01-29T01:41:04.258Z,2.20
2018-01-29T01:42:04.247Z,2.30
2018-01-29T01:43:04.241Z,2.30
2018-01-29T01:44:04.236Z,2.30
2018-01-29T01:45:04.229Z,2.40
2018-01-29T01:46:04.225Z,2.40
2018-01-29T01:47:04.218Z,1.80
2018-01-29T01:48:04.211Z,2.00
2018-01-29T01:49:04.207Z,2.60
2018-01-29T01:50:04.200Z,1.40
2018-01-29T01:51:04.194Z,1.70
2018-01-29T01:52:04.187Z,1.90
2018-01-29T01:53:04.181Z,2.10
2018-01-29T01:54:04.176Z,1.50
2018-01-29T01:55:04.169Z,1.70
2018-01-29T01:56:04.164Z,1.40
2018-01-29T01:57:04.157Z,1.70
2018-01-29T01:58:04.152Z,1.60
2018-01-29T01:59:04.145Z,1.70
2018-01-29T02:00:04.144Z,1.60
2018-01-29T02:01:04.135Z,1.70
2018-01-29T02:02:04.128Z,1.90
2018-01-29T02:03:04.123Z,1.40
2018-01-29T02:04:04.117Z,1.60
2018-01-29T02:05:04.112Z,1.50
2018-01-29T02:06:04.105Z,1.20
2018-01-29T02:07:04.104Z,1.10
2018-01-29T02:08:04.094Z,1.20
2018-01-29T02:09:04.089Z,1.30
2018-01-29T02:10:04.082Z,1.30
2018-01-29T02:11:04.076Z,1.20
2018-01-29T02:12:04.069Z,1.20
2018-01-29T02:13:04.064Z,1.20
2018-01-29T02:14:04.058Z,1.70
2018-01-29T02:15:04.053Z,1.30
2018-01-29T02:16:04.047Z,1.20
2018-01-29T02:17:04.042Z,1.20
2018-01-29T02:18:04.035Z,1.20
2018-01-29T02:19:04.030Z,1.10
2018-01-29T02:20:04.024Z,1.40
2018-01-29T02:21:04.018Z,1.30
2018-01-29T02:22:04.012Z,1.60
2018-01-29T02:23:04.005Z,1.40
2018-01-29T02:24:04.004Z,1.20
2018-01-29T02:25:03.996Z,1.30
2018-01-29T02:26:03.988Z,1.40
2018-01-29T02:27:03.983Z,1.60
2018-01-29T02:28:03.978Z,1.10
2018-01-29T02:29:03.971Z,1.70
2018-01-29T02:30:03.965Z,1.10
2018-01-29T02:31:03.959Z,1.20
2018-01-29T02:32:03.961Z,1.10
2018-01-29T02:33:03.949Z,1.10
2018-01-29T02:34:03.940Z,1.40
2018-01-29T02:35:03.935Z,1.50
2018-01-29T02:36:03.931Z,1.40
2018-01-29T02:37:03.925Z,1.30
2018-01-29T02:38:03.917Z,1.40
2018-01-29T02:39:03.913Z,1.20
2018-01-29T02:40:03.906Z,1.50
2018-01-29T02:41:03.899Z,1.30
2018-01-29T02:42:03.901Z,1.60
2018-01-29T02:43:03.888Z,1.20
2018-01-29T02:44:03.886Z,1.00
2018-01-29T02:45:03.876Z,1.10
2018-01-29T02:46:03.870Z,1.20
2018-01-29T02:47:03.865Z,1.10
2018-01-29T02:48:03.860Z,1.10
2018-01-29T02:49:03.857Z,1.50
2018-01-29T02:50:03.848Z,1.40
2018-01-29T02:51:03.843Z,1.20
2018-01-29T02:52:03.835Z,1.30
2018-01-29T02:53:03.829Z,1.20
2018-01-29T02:54:03.824Z,1.20
2018-01-29T02:55:03.819Z,1.10
2018-01-29T02:56:03.813Z,1.10
2018-01-29T02:57:03.806Z,1.60
2018-01-29T02:58:03.801Z,1.40
2018-01-29T02:59:03.794Z,1.40
2018-01-29T03:00:03.790Z,1.80
2018-01-29T03:01:03.783Z,1.10
2018-01-29T03:02:03.778Z,1.30
2018-01-29T03:03:03.772Z,1.00
2018-01-29T03:04:03.765Z,1.30
2018-01-29T03:05:03.761Z,1.50
2018-01-29T03:06:03.755Z,1.50
2018-01-29T03:07:03.749Z,1.10
2018-01-29T03:08:03.744Z,1.10
2018-01-29T03:09:03.736Z,1.20
2018-01-29T03:10:03.731Z,1.10
2018-01-29T03:11:03.725Z,1.20
2018-01-29T03:12:03.720Z,1.10
2018-01-29T03:13:03.713Z,1.00
2018-01-29T03:14:03.708Z,1.60
2018-01-29T03:15:03.702Z,1.30
2018-01-29T03:16:03.697Z,1.10
2018-01-29T03:17:03.692Z,1.20
2018-01-29T03:18:03.685Z,1.30
2018-01-29T03:19:03.679Z,1.40
2018-01-29T03:20:03.674Z,1.40
2018-01-29T03:21:03.669Z,1.20
2018-01-29T03:22:03.661Z,1.10
2018-01-29T03:23:03.657Z,1.10
2018-01-29T03:24:03.651Z,1.20
2018-01-29T03:25:03.646Z,1.30
2018-01-29T03:26:03.639Z,1.40
2018-01-29T03:27:03.634Z,1.10
2018-01-29T03:28:03.628Z,1.20
2018-01-29T03:29:03.622Z,1.30
2018-01-29T03:30:03.617Z,1.40
2018-01-29T03:31:03.611Z,1.20
2018-01-29T03:32:03.605Z,1.80
2018-01-29T03:33:03.598Z,1.90
2018-01-29T03:34:03.593Z,2.00
2018-01-29T03:35:03.586Z,1.60
2018-01-29T03:36:03.582Z,1.80
2018-01-29T03:37:03.576Z,1.60
2018-01-29T03:38:03.570Z,1.50
2018-01-29T03:39:03.563Z,1.40
2018-01-29T03:40:03.558Z,1.20
2018-01-29T03:41:03.553Z,1.20
2018-01-29T03:42:03.545Z,1.20
2018-01-29T03:43:03.540Z,1.30
2018-01-29T03:44:03.535Z,1.20
2018-01-29T03:45:03.529Z,1.70
2018-01-29T03:46:03.523Z,2.00
2018-01-29T03:47:03.517Z,1.70
2018-01-29T03:48:03.512Z,1.80
2018-01-29T03:49:03.506Z,1.40
2018-01-29T03:50:03.499Z,1.40
2018-01-29T03:51:03.495Z,1.10
2018-01-29T03:52:03.487Z,1.70
2018-01-29T03:53:03.481Z,1.90
2018-01-29T03:54:03.475Z,2.10
2018-01-29T03:55:03.471Z,1.90
2018-01-29T03:56:03.465Z,1.30
2018-01-29T03:57:03.459Z,1.30
2018-01-29T03:58:03.452Z,1.00
2018-01-29T03:59:03.447Z,1.30
2018-01-29T04:00:03.443Z,1.30
2018-01-29T04:01:03.436Z,1.20
2018-01-29T04:02:03.428Z,1.20
2018-01-29T04:03:03.423Z,1.30
2018-01-29T04:04:03.417Z,1.20
2018-01-29T04:05:03.411Z,1.20
2018-01-29T04:06:03.404Z,1.30
2018-01-29T04:07:03.400Z,1.50
2018-01-29T04:08:03.393Z,1.00
2018-01-29T04:09:03.386Z,1.10
2018-01-29T04:10:03.380Z,1.40
2018-01-29T04:11:03.374Z,1.00
2018-01-29T04:12:03.367Z,1.20
2018-01-29T04:13:03.363Z,1.10
2018-01-29T04:14:03.357Z,1.20
2018-01-29T04:15:03.350Z,1.30
2018-01-29T04:16:03.344Z,1.20
2018-01-29T04:17:03.356Z,1.40
2018-01-29T04:18:03.331Z,1.60
2018-01-29T04:19:03.326Z,1.70
2018-01-29T04:20:03.321Z,1.40
2018-01-29T04:21:03.316Z,1.60
2018-01-29T04:22:03.307Z,1.40
2018-01-29T04:23:03.300Z,1.70
2018-01-29T04:24:03.302Z,1.30
2018-01-29T04:25:03.293Z,1.70
2018-01-29T04:26:03.282Z,2.40
2018-01-29T04:27:03.278Z,2.20
2018-01-29T04:28:03.272Z,2.90
2018-01-29T04:29:03.265Z,1.50
2018-01-29T04:30:03.263Z,1.80
2018-01-29T04:31:03.253Z,1.30
2018-01-29T04:32:03.246Z,1.80
2018-01-29T04:33:03.241Z,2.10
2018-01-29T04:34:03.234Z,2.80
2018-01-29T04:35:03.228Z,4.30
2018-01-29T04:36:03.222Z,3.00
2018-01-29T04:37:03.216Z,2.60
2018-01-29T04:38:03.209Z,3.00
2018-01-29T04:39:03.203Z,1.50
2018-01-29T04:40:03.197Z,1.80
2018-01-29T04:41:03.191Z,1.90
2018-01-29T04:42:03.182Z,2.00
2018-01-29T04:43:03.177Z,1.80
2018-01-29T04:44:03.171Z,1.90
2018-01-29T04:45:03.165Z,1.70
2018-01-29T04:46:03.158Z,1.70
2018-01-29T04:47:03.151Z,1.10
2018-01-29T04:48:03.146Z,1.50
2018-01-29T04:49:03.146Z,1.60
2018-01-29T04:50:03.135Z,1.60
2018-01-29T04:51:03.126Z,1.60
2018-01-29T04:52:03.122Z,1.10
2018-01-29T04:53:03.114Z,1.10
2018-01-29T04:54:03.107Z,1.20
2018-01-29T04:55:03.101Z,1.20
2018-01-29T04:56:03.095Z,1.20
2018-01-29T04:57:03.088Z,1.10
2018-01-29T04:58:03.081Z,1.00
2018-01-29T04:59:03.075Z,1.10
2018-01-29T05:00:03.071Z,1.20
2018-01-29T05:01:03.363Z,1.10
2018-01-29T05:02:03.057Z,1.00
2018-01-29T05:03:03.051Z,0.90
2018-01-29T05:04:03.045Z,0.90
2018-01-29T05:05:03.040Z,0.90
2018-01-29T05:06:03.281Z,1.10
2018-01-29T05:07:03.025Z,1.10
2018-01-29T05:08:03.019Z,0.90
2018-01-29T05:09:03.012Z,1.40
2018-01-29T05:10:03.006Z,1.30
2018-01-29T05:11:03.001Z,1.30
2018-01-29T05:12:02.994Z,1.20
2018-01-29T05:13:02.988Z,1.00
2018-01-29T05:14:02.983Z,1.20
2018-01-29T05:15:02.974Z,1.20
2018-01-29T05:16:02.969Z,1.30
2018-01-29T05:17:02.962Z,1.00
2018-01-29T05:18:02.955Z,1.50
2018-01-29T05:19:02.949Z,0.90
2018-01-29T05:20:02.943Z,1.40
2018-01-29T05:21:02.937Z,1.30
2018-01-29T05:22:02.929Z,1.10
2018-01-29T05:23:02.927Z,4.00
2018-01-29T05:24:02.918Z,5.00
2018-01-29T05:25:02.912Z,3.60
2018-01-29T05:26:02.905Z,1.70
2018-01-29T05:27:02.900Z,1.60
2018-01-29T05:28:02.893Z,1.30
2018-01-29T05:29:02.885Z,1.40
2018-01-29T05:30:02.883Z,1.50
2018-01-29T05:31:02.877Z,1.40
2018-01-29T05:32:02.867Z,1.70
2018-01-29T05:33:02.862Z,1.40
2018-01-29T05:34:02.853Z,1.40
2018-01-29T05:35:02.849Z,1.40
2018-01-29T05:36:02.842Z,1.00
2018-01-29T05:37:02.835Z,1.20
2018-01-29T05:38:02.828Z,1.30
2018-01-29T05:39:02.822Z,1.60
2018-01-29T05:40:02.864Z,1.70
2018-01-29T05:41:02.810Z,1.10
2018-01-29T05:42:02.802Z,1.30
2018-01-29T05:43:02.796Z,1.20
2018-01-29T05:44:02.790Z,1.10
2018-01-29T05:45:02.785Z,1.10
2018-01-29T05:46:02.778Z,1.40
2018-01-29T05:47:02.771Z,1.10
2018-01-29T05:48:02.768Z,1.50
2018-01-29T05:49:02.758Z,1.00
2018-01-29T05:50:02.752Z,1.00
2018-01-29T05:51:02.745Z,1.20
2018-01-29T05:52:02.739Z,1.40
2018-01-29T05:53:02.734Z,1.20
2018-01-29T05:54:02.726Z,1.30
2018-01-29T05:55:02.719Z,1.20
2018-01-29T05:56:02.713Z,1.20
2018-01-29T05:57:02.708Z,0.90
2018-01-29T05:58:02.703Z,1.00
2018-01-29T05:59:02.694Z,1.10
2018-01-29T06:00:02.688Z,1.10
2018-01-29T06:01:02.682Z,1.00
2018-01-29T06:02:02.675Z,1.30
2018-01-29T06:03:02.669Z,1.30
2018-01-29T06:04:02.662Z,1.10
2018-01-29T06:05:02.656Z,1.00
2018-01-29T06:06:02.650Z,1.10
2018-01-29T06:07:02.644Z,1.00
2018-01-29T06:08:02.637Z,1.20
2018-01-29T06:09:02.631Z,1.60
2018-01-29T06:10:02.625Z,1.20
2018-01-29T06:11:02.620Z,1.40
2018-01-29T06:12:02.612Z,1.30
2018-01-29T06:13:02.605Z,1.40
2018-01-29T06:14:02.600Z,1.30
2018-01-29T06:15:02.594Z,1.50
2018-01-29T06:16:02.587Z,1.70
2018-01-29T06:17:02.581Z,1.80
2018-01-29T06:18:02.574Z,1.30
2018-01-29T06:19:02.566Z,1.30
2018-01-29T06:20:02.563Z,1.30
2018-01-29T06:21:02.557Z,1.50
2018-01-29T06:22:02.547Z,1.10
2018-01-29T06:23:02.541Z,1.20
2018-01-29T06:24:02.535Z,1.40
2018-01-29T06:25:02.529Z,2.00
2018-01-29T06:26:02.522Z,1.90
2018-01-29T06:27:02.516Z,1.30
2018-01-29T06:28:02.516Z,1.70
2018-01-29T06:29:02.503Z,1.70
2018-01-29T06:30:02.498Z,1.60
2018-01-29T06:31:02.491Z,1.00
2018-01-29T06:32:02.485Z,1.10
2018-01-29T06:33:02.479Z,2.00
2018-01-29T06:34:02.472Z,1.40
2018-01-29T06:35:02.465Z,1.40
2018-01-29T06:36:02.465Z,1.30
2018-01-29T06:37:02.455Z,2.20
2018-01-29T06:38:02.445Z,2.10
2018-01-29T06:39:02.440Z,1.70
2018-01-29T06:40:02.434Z,2.00
2018-01-29T06:41:02.429Z,1.20
2018-01-29T06:42:02.420Z,1.30
2018-01-29T06:43:02.414Z,1.10
2018-01-29T06:44:02.409Z,1.00
2018-01-29T06:45:02.409Z,1.30
2018-01-29T06:46:02.395Z,1.50
2018-01-29T06:47:02.389Z,1.20
2018-01-29T06:48:02.385Z,1.20
2018-01-29T06:49:02.378Z,1.30
2018-01-29T06:50:02.370Z,1.00
2018-01-29T06:51:02.362Z,1.20
2018-01-29T06:52:02.358Z,1.10
2018-01-29T06:53:02.354Z,1.10
2018-01-29T06:54:02.343Z,1.20
2018-01-29T06:55:02.338Z,1.00
2018-01-29T06:56:02.332Z,1.20
2018-01-29T06:57:02.326Z,1.10
2018-01-29T06:58:02.318Z,1.20
2018-01-29T06:59:02.312Z,1.20
2018-01-29T07:00:02.333Z,1.30
2018-01-29T07:01:02.301Z,1.30
2018-01-29T07:02:02.293Z,1.10
2018-01-29T07:03:02.288Z,1.10
2018-01-29T07:04:02.281Z,1.50
2018-01-29T07:05:02.275Z,1.60
2018-01-29T07:06:02.268Z,1.30
2018-01-29T07:07:02.262Z,1.20
2018-01-29T07:08:02.255Z,1.20
2018-01-29T07:09:02.249Z,1.30
2018-01-29T07:10:02.243Z,1.40
2018-01-29T07:11:02.237Z,1.70
2018-01-29T07:12:02.231Z,1.40
2018-01-29T07:13:02.229Z,1.20
2018-01-29T07:14:02.217Z,1.70
2018-01-29T07:15:02.214Z,1.40
2018-01-29T07:16:02.205Z,1.40
2018-01-29T07:17:02.201Z,1.50
2018-01-29T07:18:02.194Z,1.20
2018-01-29T07:19:02.188Z,1.10
2018-01-29T07:20:02.183Z,1.30
2018-01-29T07:21:02.180Z,1.40
2018-01-29T07:22:02.173Z,1.20
2018-01-29T07:23:02.166Z,1.30
2018-01-29T07:24:02.161Z,1.00
2018-01-29T07:25:02.156Z,1.00
2018-01-29T07:26:02.151Z,1.30
2018-01-29T07:27:02.146Z,1.10
2018-01-29T07:28:02.140Z,1.20
2018-01-29T07:29:02.136Z,1.50
2018-01-29T07:30:02.131Z,1.00
2018-01-29T07:31:02.126Z,1.00
2018-01-29T07:32:02.137Z,1.30
2018-01-29T07:33:02.117Z,1.10
2018-01-29T07:34:02.113Z,1.50
2018-01-29T07:35:02.109Z,1.40
2018-01-29T07:36:02.104Z,1.50
2018-01-29T07:37:02.101Z,1.30
2018-01-29T07:38:02.095Z,1.30
2018-01-29T07:39:02.091Z,1.60
2018-01-29T07:40:02.087Z,1.20
2018-01-29T07:41:02.085Z,1.30
2018-01-29T07:42:02.080Z,1.50
2018-01-29T07:43:02.079Z,1.40
2018-01-29T07:44:02.076Z,1.90
2018-01-29T07:45:02.074Z,1.50
2018-01-29T07:46:02.072Z,1.60
2018-01-29T07:47:02.072Z,1.40
2018-01-29T07:48:02.074Z,1.40
2018-01-29T07:49:02.070Z,1.70
2018-01-29T07:50:02.069Z,1.30
2018-01-29T07:51:02.068Z,1.60
2018-01-29T07:52:02.069Z,1.50
2018-01-29T07:53:02.070Z,1.50
2018-01-29T07:54:02.071Z,1.60
2018-01-29T07:55:02.073Z,1.50
2018-01-29T07:56:02.075Z,1.70
2018-01-29T07:57:02.078Z,1.60
2018-01-29T07:58:02.080Z,1.50
2018-01-29T07:59:02.084Z,1.20
2018-01-29T08:00:02.087Z,1.40
2018-01-29T08:01:02.091Z,1.40
2018-01-29T08:02:02.093Z,1.30
2018-01-29T08:03:02.099Z,1.40
2018-01-29T08:04:02.102Z,1.60
2018-01-29T08:05:02.105Z,1.40
2018-01-29T08:06:02.109Z,1.10
2018-01-29T08:07:02.113Z,1.30
2018-01-29T08:08:02.117Z,1.20
2018-01-29T08:09:02.126Z,1.70
2018-01-29T08:10:02.127Z,1.60
2018-01-29T08:11:02.131Z,2.00
2018-01-29T08:12:02.136Z,2.00
2018-01-29T08:13:02.142Z,1.50
2018-01-29T08:14:02.147Z,1.90
2018-01-29T08:15:02.155Z,2.00
2018-01-29T08:16:02.161Z,1.30
2018-01-29T08:17:02.166Z,1.40
2018-01-29T08:18:02.173Z,1.30
2018-01-29T08:19:02.456Z,1.70
2018-01-29T08:20:02.187Z,1.60
2018-01-29T08:21:02.193Z,1.40
2018-01-29T08:22:02.200Z,1.80
2018-01-29T08:23:02.209Z,1.80
2018-01-29T08:24:02.216Z,1.70
2018-01-29T08:25:02.224Z,1.60
2018-01-29T08:26:02.231Z,1.80
2018-01-29T08:27:02.237Z,1.50
2018-01-29T08:28:02.245Z,2.00
2018-01-29T08:29:02.253Z,1.50
2018-01-29T08:30:02.259Z,1.40
2018-01-29T08:31:02.266Z,1.80
2018-01-29T08:32:02.273Z,1.50
2018-01-29T08:33:02.280Z,1.60
2018-01-29T08:34:02.284Z,1.40
2018-01-29T08:35:02.290Z,1.40
2018-01-29T08:36:02.296Z,1.40
2018-01-29T08:37:02.301Z,1.40
2018-01-29T08:38:02.305Z,1.40
2018-01-29T08:39:02.308Z,1.30
2018-01-29T08:40:02.312Z,1.70
2018-01-29T08:41:02.314Z,1.30
2018-01-29T08:42:02.315Z,1.50
2018-01-29T08:43:02.320Z,1.60
2018-01-29T08:44:02.321Z,2.00
2018-01-29T08:45:02.327Z,1.90
2018-01-29T08:46:02.331Z,1.50
2018-01-29T08:47:02.331Z,1.50
2018-01-29T08:48:02.334Z,1.60
2018-01-29T08:49:02.339Z,1.90
2018-01-29T08:50:02.341Z,1.70
2018-01-29T08:51:02.344Z,1.80
2018-01-29T08:52:02.346Z,1.30
2018-01-29T08:53:02.350Z,1.50
2018-01-29T08:54:02.354Z,1.40
2018-01-29T08:55:02.356Z,1.60
2018-01-29T08:56:02.361Z,1.60
2018-01-29T08:57:02.364Z,1.50
2018-01-29T08:58:02.365Z,1.10
2018-01-29T08:59:02.367Z,1.40
2018-01-29T09:00:02.368Z,1.40
2018-01-29T09:01:02.372Z,1.00
2018-01-29T09:02:02.373Z,1.00
2018-01-29T09:03:02.373Z,0.90
2018-01-29T09:04:02.376Z,2.20
2018-01-29T09:05:02.376Z,5.00
2018-01-29T09:06:02.376Z,1.30
2018-01-29T09:07:02.377Z,1.70
2018-01-29T09:08:02.378Z,3.30
2018-01-29T09:09:02.379Z,2.70
2018-01-29T09:10:02.379Z,3.80
2018-01-29T09:11:02.379Z,1.90
2018-01-29T09:12:02.381Z,1.80
2018-01-29T09:13:02.380Z,1.20
2018-01-29T09:14:02.381Z,3.20
2018-01-29T09:15:02.381Z,2.70
2018-01-29T09:16:02.382Z,2.90
2018-01-29T09:17:02.383Z,2.90
2018-01-29T09:18:02.382Z,2.00
2018-01-29T09:19:02.384Z,2.10
2018-01-29T09:20:02.384Z,2.40
2018-01-29T09:21:02.385Z,3.20
2018-01-29T09:22:02.384Z,3.10
2018-01-29T09:23:02.385Z,1.40
2018-01-29T09:24:02.386Z,1.20
2018-01-29T09:25:02.387Z,1.20
2018-01-29T09:26:02.385Z,1.90
2018-01-29T09:27:02.386Z,1.80
2018-01-29T09:28:02.386Z,1.90
2018-01-29T09:29:02.387Z,1.60
2018-01-29T09:30:02.388Z,1.90
2018-01-29T09:31:02.388Z,1.70
2018-01-29T09:32:02.391Z,2.00
2018-01-29T09:33:02.389Z,2.20
2018-01-29T09:34:02.390Z,3.20
2018-01-29T09:35:02.391Z,2.70
2018-01-29T09:36:02.390Z,3.00
2018-01-29T09:37:02.390Z,3.20
2018-01-29T09:38:02.391Z,1.70
2018-01-29T09:39:02.398Z,1.70
2018-01-29T09:40:02.393Z,2.30
2018-01-29T09:41:02.394Z,2.20
2018-01-29T09:42:02.395Z,2.00
2018-01-29T09:43:02.395Z,1.50
2018-01-29T09:44:02.396Z,1.40
2018-01-29T09:45:02.398Z,1.50
2018-01-29T09:46:02.397Z,1.40
2018-01-29T09:47:02.400Z,1.30
2018-01-29T09:48:02.402Z,1.80
2018-01-29T09:49:02.404Z,1.70
2018-01-29T09:50:02.405Z,1.50
2018-01-29T09:51:02.408Z,2.00
2018-01-29T09:52:02.411Z,4.00
2018-01-29T09:53:02.714Z,1.70
2018-01-29T09:54:02.414Z,1.60
2018-01-29T09:55:02.422Z,1.50
2018-01-29T09:56:02.421Z,1.50
2018-01-29T09:57:02.425Z,1.60
2018-01-29T09:58:02.676Z,1.50
2018-01-29T09:59:02.429Z,1.40
2018-01-29T10:00:02.431Z,2.20
2018-01-29T10:01:02.434Z,1.70
2018-01-29T10:02:02.436Z,1.90
2018-01-29T10:03:02.438Z,2.50
2018-01-29T10:04:02.441Z,2.10
2018-01-29T10:05:02.444Z,3.60
2018-01-29T10:06:02.446Z,2.20
2018-01-29T10:07:02.449Z,1.40
2018-01-29T10:08:02.452Z,1.60
2018-01-29T10:09:02.461Z,1.10
2018-01-29T10:10:02.460Z,1.40
2018-01-29T10:11:02.460Z,1.50
2018-01-29T10:12:02.465Z,1.70
2018-01-29T10:13:02.468Z,1.80
2018-01-29T10:14:02.470Z,1.40
2018-01-29T10:15:02.476Z,2.00
2018-01-29T10:16:02.478Z,1.90
2018-01-29T10:17:02.482Z,1.80
2018-01-29T10:18:02.486Z,2.30
2018-01-29T10:19:02.491Z,1.70
2018-01-29T10:20:02.495Z,1.50
2018-01-29T10:21:02.502Z,1.70
2018-01-29T10:22:02.508Z,2.00
2018-01-29T10:23:02.523Z,1.50
2018-01-29T10:24:02.512Z,1.60
2018-01-29T10:25:02.514Z,1.50
2018-01-29T10:26:02.520Z,1.90
2018-01-29T10:27:02.523Z,1.70
2018-01-29T10:28:02.527Z,1.50
2018-01-29T10:29:02.533Z,1.40
2018-01-29T10:30:02.537Z,1.20
2018-01-29T10:31:02.541Z,1.60
2018-01-29T10:32:02.548Z,1.30
2018-01-29T10:33:02.552Z,1.40
2018-01-29T10:34:02.558Z,1.40
2018-01-29T10:35:02.563Z,1.80
2018-01-29T10:36:02.570Z,1.40
2018-01-29T10:37:02.574Z,1.60
2018-01-29T10:38:02.580Z,1.80
2018-01-29T10:39:02.587Z,1.40
2018-01-29T10:40:02.594Z,1.20
2018-01-29T10:41:02.602Z,1.20
2018-01-29T10:42:02.607Z,1.50
2018-01-29T10:43:02.615Z,1.60
2018-01-29T10:44:02.624Z,1.20
2018-01-29T10:45:02.630Z,1.10
2018-01-29T10:46:02.637Z,1.20
2018-01-29T10:47:02.645Z,1.10
2018-01-29T10:48:02.656Z,1.20
2018-01-29T10:49:02.664Z,1.10
2018-01-29T10:50:02.672Z,1.10
2018-01-29T10:51:02.680Z,1.30
2018-01-29T10:52:02.689Z,1.40
2018-01-29T10:53:02.696Z,1.40
2018-01-29T10:54:02.706Z,1.30
2018-01-29T10:55:02.715Z,1.50
2018-01-29T10:56:02.725Z,1.50
2018-01-29T10:57:02.734Z,1.80
2018-01-29T10:58:02.744Z,1.10
2018-01-29T10:59:02.753Z,1.60
2018-01-29T11:00:02.763Z,1.60
2018-01-29T11:01:02.773Z,1.40
2018-01-29T11:02:02.782Z,1.30
2018-01-29T11:03:02.793Z,1.40
2018-01-29T11:04:02.802Z,1.10
2018-01-29T11:05:02.811Z,3.20
2018-01-29T11:06:02.821Z,6.80
2018-01-29T11:07:02.831Z,1.90
2018-01-29T11:08:02.840Z,1.70
2018-01-29T11:09:02.853Z,3.10
2018-01-29T11:10:02.861Z,1.30
2018-01-29T11:11:02.870Z,1.10
2018-01-29T11:12:02.880Z,1.40
2018-01-29T11:13:02.892Z,1.00
2018-01-29T11:14:02.898Z,1.10
2018-01-29T11:15:02.908Z,1.30
2018-01-29T11:16:02.917Z,1.10
2018-01-29T11:17:02.926Z,1.40
2018-01-29T11:18:02.934Z,1.50
2018-01-29T11:19:02.943Z,1.20
2018-01-29T11:20:02.951Z,1.20
2018-01-29T11:21:02.960Z,1.10
2018-01-29T11:22:02.967Z,1.10
2018-01-29T11:23:02.975Z,1.10
2018-01-29T11:24:02.983Z,1.20
2018-01-29T11:25:02.992Z,1.10
2018-01-29T11:26:03.000Z,0.90
2018-01-29T11:27:03.008Z,1.00
2018-01-29T11:28:03.014Z,1.10
2018-01-29T11:29:03.022Z,1.20
2018-01-29T11:30:03.030Z,1.10
2018-01-29T11:31:03.036Z,1.20
2018-01-29T11:32:03.044Z,0.90
2018-01-29T11:33:03.051Z,1.00
2018-01-29T11:34:03.058Z,1.30
2018-01-29T11:35:03.066Z,1.50
2018-01-29T11:36:03.076Z,3.10
2018-01-29T11:37:03.083Z,3.40
2018-01-29T11:38:03.088Z,2.70
2018-01-29T11:39:03.156Z,1.20
2018-01-29T11:40:03.104Z,1.50
2018-01-29T11:41:03.112Z,1.70
2018-01-29T11:42:03.120Z,4.30
2018-01-29T11:43:03.129Z,3.40
2018-01-29T11:44:03.135Z,1.20
2018-01-29T11:45:03.144Z,1.00
2018-01-29T11:46:03.149Z,0.80
2018-01-29T11:47:03.158Z,0.90
2018-01-29T11:48:03.167Z,0.80
2018-01-29T11:49:03.173Z,0.70
2018-01-29T11:50:03.180Z,0.90
2018-01-29T11:51:03.187Z,0.70
2018-01-29T11:52:03.194Z,0.80
2018-01-29T11:53:03.201Z,0.80
2018-01-29T11:54:03.207Z,0.80
2018-01-29T11:55:03.269Z,1.00
2018-01-29T11:56:03.222Z,0.70
2018-01-29T11:57:03.229Z,0.90
2018-01-29T11:58:03.235Z,1.00
2018-01-29T11:59:03.243Z,1.10
2018-01-29T12:00:03.250Z,0.80
2018-01-29T12:01:03.258Z,4.80
2018-01-29T12:02:03.266Z,1.40
2018-01-29T12:03:03.269Z,1.00
2018-01-29T12:04:03.278Z,1.00
2018-01-29T12:05:03.290Z,0.80
2018-01-29T12:06:03.291Z,1.00
2018-01-29T12:07:03.297Z,1.00
2018-01-29T12:08:03.306Z,1.40
2018-01-29T12:09:03.314Z,2.00
2018-01-29T12:10:03.320Z,1.50
2018-01-29T12:11:03.331Z,1.10
2018-01-29T12:12:03.335Z,1.00
2018-01-29T12:13:03.343Z,0.90
2018-01-29T12:14:03.350Z,1.10
2018-01-29T12:15:03.357Z,1.10
2018-01-29T12:16:03.366Z,1.20
2018-01-29T12:17:03.376Z,1.20
2018-01-29T12:18:03.378Z,1.00
2018-01-29T12:19:03.386Z,1.20
2018-01-29T12:20:03.394Z,1.10
2018-01-29T12:21:03.401Z,0.90
2018-01-29T12:22:03.407Z,1.10
2018-01-29T12:23:03.414Z,1.30
2018-01-29T12:24:03.423Z,0.90
2018-01-29T12:25:03.436Z,1.30
2018-01-29T12:26:03.435Z,1.30
2018-01-29T12:27:03.442Z,1.20
2018-01-29T12:28:03.449Z,1.10
2018-01-29T12:29:03.465Z,1.60
2018-01-29T12:30:03.465Z,1.00
2018-01-29T12:31:03.469Z,1.20
2018-01-29T12:32:03.477Z,1.30
2018-01-29T12:33:03.483Z,1.30
2018-01-29T12:34:03.489Z,1.00
2018-01-29T12:35:03.497Z,1.00
2018-01-29T12:36:03.516Z,4.80
2018-01-29T12:37:03.511Z,9.30
2018-01-29T12:38:03.517Z,3.80
2018-01-29T12:39:03.525Z,1.00
2018-01-29T12:40:03.531Z,1.30
2018-01-29T12:41:03.538Z,1.30
2018-01-29T12:42:03.545Z,0.90
2018-01-29T12:43:03.555Z,1.00
2018-01-29T12:44:03.559Z,1.10
2018-01-29T12:45:03.566Z,1.10
2018-01-29T12:46:03.575Z,1.40
2018-01-29T12:47:03.580Z,6.60
2018-01-29T12:48:03.586Z,3.70
2018-01-29T12:49:03.594Z,5.80
2018-01-29T12:50:03.600Z,3.70
2018-01-29T12:51:03.607Z,6.60
2018-01-29T12:52:03.615Z,2.90
2018-01-29T12:53:03.623Z,1.10
2018-01-29T12:54:03.627Z,6.00
2018-01-29T12:55:03.634Z,5.50
2018-01-29T12:56:03.641Z,7.20
2018-01-29T12:57:03.646Z,1.50
2018-01-29T12:58:03.654Z,1.00
2018-01-29T12:59:03.659Z,1.20
2018-01-29T13:00:03.666Z,1.10
2018-01-29T13:01:03.671Z,0.80
2018-01-29T13:02:03.678Z,0.90
2018-01-29T13:03:03.685Z,1.10
2018-01-29T13:04:03.691Z,0.90
2018-01-29T13:05:03.698Z,1.20
2018-01-29T13:06:03.703Z,1.00
2018-01-29T13:07:03.710Z,0.90
2018-01-29T13:08:03.715Z,1.80
2018-01-29T13:09:03.723Z,2.50
2018-01-29T13:10:03.732Z,1.00
2018-01-29T13:11:03.734Z,1.00
2018-01-29T13:12:03.740Z,0.90
2018-01-29T13:13:03.747Z,1.00
2018-01-29T13:14:03.752Z,1.20
2018-01-29T13:15:03.757Z,1.10
2018-01-29T13:16:03.765Z,1.00
2018-01-29T13:17:03.771Z,1.10
2018-01-29T13:18:03.777Z,1.00